createdAt,value
2022-08-21T00:00:29.949Z,101152.16
2022-08-21T00:03:10.245Z,101146.66
2022-08-21T00:05:51.264Z,101139.97
2022-08-21T00:08:33.116Z,101142.38
2022-08-21T00:11:12.958Z,101138.84
2022-08-21T00:13:52.269Z,101133.66
2022-08-21T00:16:32.222Z,101133.66
2022-08-21T00:19:12.022Z,101130.69
2022-08-21T00:21:51.766Z,101137.91
2022-08-21T00:24:30.656Z,101144.47
2022-08-21T00:27:13.324Z,101134.59
2022-08-21T00:29:54.149Z,101140.31
2022-08-21T00:32:32.966Z,101137.81
2022-08-21T00:35:20.195Z,101139.00
2022-08-21T00:38:13.934Z,101140.38
2022-08-21T00:40:56.551Z,101139.88
2022-08-21T00:43:38.652Z,101145.94
2022-08-21T00:46:19.492Z,101147.97
2022-08-21T00:48:59.366Z,101139.44
2022-08-21T00:51:42.002Z,101153.03
2022-08-21T00:54:23.286Z,101143.66
2022-08-21T00:57:05.709Z,101150.84
2022-08-21T00:59:49.800Z,101149.34
2022-08-21T01:02:29.593Z,101153.03
2022-08-21T01:05:11.354Z,101150.72
2022-08-21T01:07:51.480Z,101157.09
2022-08-21T01:11:11.580Z,101155.78
2022-08-21T01:13:50.084Z,101149.94
2022-08-21T01:16:30.098Z,101149.44
2022-08-21T01:19:10.617Z,101148.44
2022-08-21T01:21:50.924Z,101146.44
2022-08-21T01:24:32.444Z,101154.47
2022-08-21T01:27:13.073Z,101144.59
2022-08-21T01:30:36.023Z,101152.47
2022-08-21T01:33:15.307Z,101150.66
2022-08-21T01:35:54.700Z,101148.66
2022-08-21T01:38:36.738Z,101149.47
2022-08-21T01:41:19.478Z,101153.16
2022-08-21T01:43:57.653Z,101150.50
2022-08-21T01:46:37.474Z,101142.81
2022-08-21T01:49:17.126Z,101136.09
2022-08-21T01:51:56.737Z,101137.09
2022-08-21T01:54:37.260Z,101135.44
2022-08-21T01:57:18.195Z,101133.09
2022-08-21T01:59:58.459Z,101127.75
2022-08-21T02:03:31.248Z,101131.78
2022-08-21T02:06:18.699Z,101123.09
2022-08-21T02:08:58.484Z,101128.44
2022-08-21T02:11:41.396Z,101119.75
2022-08-21T02:14:32.029Z,101120.09
2022-08-21T02:17:14.137Z,101109.72
2022-08-21T02:19:52.540Z,101113.75
2022-08-21T02:22:31.952Z,101107.72
2022-08-21T02:25:11.835Z,101112.78
2022-08-21T02:27:52.128Z,101116.78
2022-08-21T02:30:36.588Z,101115.97
2022-08-21T02:33:18.587Z,101107.09
2022-08-21T02:35:59.653Z,101105.41
2022-08-21T02:38:41.875Z,101102.22
2022-08-21T02:41:24.657Z,101102.75
2022-08-21T02:44:03.802Z,101105.44
2022-08-21T02:46:45.083Z,101105.44
2022-08-21T02:49:24.423Z,101099.25
2022-08-21T02:52:06.660Z,101101.09
2022-08-21T02:54:47.697Z,101098.41
2022-08-21T02:57:25.950Z,101097.72
2022-08-21T03:00:07.569Z,101088.22
2022-08-21T03:02:48.678Z,101083.03
2022-08-21T03:05:29.476Z,101085.38
2022-08-21T03:08:28.827Z,101080.00
2022-08-21T03:11:10.324Z,101072.34
2022-08-21T03:13:51.455Z,101074.00
2022-08-21T03:16:34.875Z,101085.72
2022-08-21T03:19:21.660Z,101082.03
2022-08-21T03:22:01.194Z,101077.19
2022-08-21T03:24:40.670Z,101082.00
2022-08-21T03:27:27.577Z,101083.34
2022-08-21T03:30:09.539Z,101084.00
2022-08-21T03:32:48.333Z,101077.31
2022-08-21T03:35:28.451Z,101083.00
2022-08-21T03:38:09.916Z,101086.16
2022-08-21T03:40:53.210Z,101081.63
2022-08-21T03:43:34.379Z,101077.94
2022-08-21T03:46:16.854Z,101079.00
2022-08-21T03:48:56.574Z,101081.97
2022-08-21T03:51:36.548Z,101078.78
2022-08-21T03:54:14.784Z,101081.28
2022-08-21T03:56:55.652Z,101076.44
2022-08-21T03:59:38.005Z,101088.13
2022-08-21T04:02:23.047Z,101079.56
2022-08-21T04:05:03.057Z,101085.75
2022-08-21T04:07:42.816Z,101086.25
2022-08-21T04:10:24.517Z,101085.09
2022-08-21T04:13:05.065Z,101085.56
2022-08-21T04:15:45.610Z,101092.25
2022-08-21T04:18:25.586Z,101086.53
2022-08-21T04:21:07.987Z,101094.22
2022-08-21T04:23:50.021Z,101101.06
2022-08-21T04:26:29.489Z,101101.94
2022-08-21T04:29:10.457Z,101101.22
2022-08-21T04:31:50.995Z,101097.19
2022-08-21T04:34:32.604Z,101088.31
2022-08-21T04:37:11.917Z,101091.81
2022-08-21T04:39:53.554Z,101095.16
2022-08-21T04:42:56.513Z,101097.34
2022-08-21T04:45:43.708Z,101104.88
2022-08-21T04:49:04.287Z,101099.63
2022-08-21T04:51:49.714Z,101104.28
2022-08-21T04:54:30.032Z,101103.13
2022-08-21T04:57:12.122Z,101109.81
2022-08-21T04:59:53.099Z,101117.47
2022-08-21T05:02:33.970Z,101123.19
2022-08-21T05:05:18.029Z,101107.91
2022-08-21T05:07:59.895Z,101120.28
2022-08-21T05:10:43.121Z,101116.41
2022-08-21T05:13:34.641Z,101112.38
2022-08-21T05:16:13.976Z,101108.69
2022-08-21T05:19:13.676Z,101110.28
2022-08-21T05:21:53.505Z,101114.97
2022-08-21T05:24:42.079Z,101110.91
2022-08-21T05:27:22.792Z,101117.41
2022-08-21T05:30:03.832Z,101134.47
2022-08-21T05:32:43.202Z,101127.53
2022-08-21T05:35:23.142Z,101134.84
2022-08-21T05:38:03.129Z,101142.53
2022-08-21T05:40:42.669Z,101144.16
2022-08-21T05:43:22.863Z,101149.16
2022-08-21T05:46:05.304Z,101152.81
2022-08-21T05:49:04.934Z,101144.88
2022-08-21T05:51:46.866Z,101147.03
2022-08-21T05:54:26.441Z,101138.41
2022-08-21T05:58:03.207Z,101138.56
2022-08-21T06:00:42.525Z,101137.34
2022-08-21T06:03:26.143Z,101140.88
2022-08-21T06:06:08.376Z,101136.59
2022-08-21T06:08:58.946Z,101141.78
2022-08-21T06:11:57.421Z,101144.94
2022-08-21T06:14:37.729Z,101148.13
2022-08-21T06:17:17.105Z,101152.28
2022-08-21T06:19:56.693Z,101158.03
2022-08-21T06:22:35.197Z,101151.44
2022-08-21T06:25:14.653Z,101148.19
2022-08-21T06:27:54.361Z,101150.31
2022-08-21T06:30:38.046Z,101142.56
2022-08-21T06:33:20.939Z,101143.31
2022-08-21T06:36:02.233Z,101145.06
2022-08-21T06:38:41.761Z,101143.97
2022-08-21T06:41:31.602Z,101141.16
2022-08-21T06:44:19.279Z,101144.44
2022-08-21T06:46:57.730Z,101138.09
2022-08-21T06:49:38.517Z,101137.44
2022-08-21T06:52:30.447Z,101138.00
2022-08-21T06:55:11.304Z,101139.78
2022-08-21T06:57:53.034Z,101133.72
2022-08-21T07:00:34.897Z,101133.88
2022-08-21T07:03:28.110Z,101134.00
2022-08-21T07:06:26.782Z,101136.63
2022-08-21T07:09:06.135Z,101135.06
2022-08-21T07:11:47.520Z,101135.19
2022-08-21T07:14:27.278Z,101130.75
2022-08-21T07:17:06.772Z,101126.72
2022-08-21T07:19:46.518Z,101122.22
2022-08-21T07:22:28.428Z,101131.28
2022-08-21T07:25:08.932Z,101134.28
2022-08-21T07:27:49.167Z,101138.25
2022-08-21T07:30:32.079Z,101142.47
2022-08-21T07:33:24.669Z,101138.34
2022-08-21T07:36:04.792Z,101135.47
2022-08-21T07:38:45.059Z,101128.06
2022-08-21T07:41:27.222Z,101134.72
2022-08-21T07:44:07.789Z,101128.69
2022-08-21T07:46:58.102Z,101121.78
2022-08-21T07:49:37.522Z,101122.59
2022-08-21T07:52:17.253Z,101123.34
2022-08-21T07:54:57.093Z,101121.13
2022-08-21T07:58:18.274Z,101118.34
2022-08-21T08:00:58.975Z,101120.13
2022-08-21T08:03:39.653Z,101124.78
2022-08-21T08:06:20.465Z,101127.28
2022-08-21T08:08:59.936Z,101119.78
2022-08-21T08:11:41.119Z,101133.75
2022-08-21T08:14:21.129Z,101124.41
2022-08-21T08:17:34.079Z,101124.34
2022-08-21T08:20:15.327Z,101136.50
2022-08-21T08:23:13.190Z,101135.38
2022-08-21T08:25:55.961Z,101137.75
2022-08-21T08:28:37.141Z,101129.09
2022-08-21T08:31:16.803Z,101133.03
2022-08-21T08:33:56.372Z,101129.81
2022-08-21T08:36:41.151Z,101135.16
2022-08-21T08:39:26.454Z,101128.31
2022-08-21T08:42:32.648Z,101132.53
2022-08-21T08:45:18.331Z,101136.72
2022-08-21T08:48:04.252Z,101131.31
2022-08-21T08:50:49.539Z,101132.84
2022-08-21T08:53:35.787Z,101136.78
2022-08-21T08:56:16.141Z,101135.81
2022-08-21T08:58:57.900Z,101128.00
2022-08-21T09:01:39.218Z,101129.00
2022-08-21T09:04:24.880Z,101126.75
2022-08-21T09:07:16.381Z,101116.53
2022-08-21T09:10:14.680Z,101119.41
2022-08-21T09:13:02.963Z,101111.34
2022-08-21T09:15:48.987Z,101120.09
2022-08-21T09:18:37.771Z,101116.53
2022-08-21T09:21:23.329Z,101114.72
2022-08-21T09:24:05.998Z,101113.47
2022-08-21T09:26:50.315Z,101111.66
2022-08-21T09:29:34.036Z,101107.00
2022-08-21T09:32:19.264Z,101103.75
2022-08-21T09:35:03.207Z,101105.66
2022-08-21T09:37:52.641Z,101102.13
2022-08-21T09:40:38.077Z,101108.75
2022-08-21T09:43:21.645Z,101109.25
2022-08-21T09:46:07.486Z,101102.09
2022-08-21T09:48:49.315Z,101092.78
2022-08-21T09:51:33.634Z,101101.00
2022-08-21T09:54:19.694Z,101099.88
2022-08-21T09:57:18.588Z,101102.28
2022-08-21T10:00:12.631Z,101099.47
2022-08-21T10:02:52.731Z,101098.81
2022-08-21T10:05:32.660Z,101097.31
2022-08-21T10:08:20.448Z,101089.38
2022-08-21T10:11:08.368Z,101088.09
2022-08-21T10:13:53.748Z,101087.00
2022-08-21T10:16:40.764Z,101085.34
2022-08-21T10:19:28.348Z,101086.47
2022-08-21T10:22:23.625Z,101080.50
2022-08-21T10:25:11.283Z,101078.06
2022-08-21T10:28:00.862Z,101075.38
2022-08-21T10:30:48.109Z,101079.69
2022-08-21T10:33:35.180Z,101079.44
2022-08-21T10:36:21.103Z,101079.00
2022-08-21T10:39:26.641Z,101071.97
2022-08-21T10:42:28.436Z,101060.66
2022-08-21T10:45:19.764Z,101067.00
2022-08-21T10:48:05.461Z,101071.13
2022-08-21T10:50:50.357Z,101070.16
2022-08-21T10:53:41.756Z,101073.31
2022-08-21T10:56:25.933Z,101077.44
2022-08-21T10:59:20.283Z,101066.78
2022-08-21T11:02:02.607Z,101069.06
2022-08-21T11:04:50.549Z,101060.03
2022-08-21T11:08:14.897Z,101063.97
2022-08-21T11:11:00.071Z,101061.63
2022-08-21T11:13:43.914Z,101062.28
2022-08-21T11:16:25.890Z,101063.19
2022-08-21T11:19:11.283Z,101059.63
2022-08-21T11:22:01.212Z,101069.47
2022-08-21T11:24:46.563Z,101069.41
2022-08-21T11:27:51.252Z,101066.72
2022-08-21T11:30:38.753Z,101052.75
2022-08-21T11:33:35.695Z,101063.22
2022-08-21T11:36:20.181Z,101056.13
2022-08-21T11:39:05.123Z,101047.41
2022-08-21T11:41:48.243Z,101048.41
2022-08-21T11:44:35.426Z,101055.22
2022-08-21T11:47:20.408Z,101052.19
2022-08-21T11:50:29.770Z,101053.09
2022-08-21T11:53:18.936Z,101064.50
2022-08-21T11:56:04.767Z,101052.91
2022-08-21T11:58:47.741Z,101057.84
2022-08-21T12:01:32.017Z,101048.72
2022-08-21T12:04:28.586Z,101055.34
2022-08-21T12:07:14.554Z,101058.28
2022-08-21T12:10:21.921Z,101053.75
2022-08-21T12:13:15.800Z,101048.81
2022-08-21T12:16:31.050Z,101047.84
2022-08-21T12:19:33.451Z,101054.53
2022-08-21T12:22:15.890Z,101051.13
2022-08-21T12:25:05.986Z,101049.81
2022-08-21T12:27:49.808Z,101057.59
2022-08-21T12:30:38.972Z,101051.75
2022-08-21T12:33:25.733Z,101049.44
2022-08-21T12:36:07.983Z,101040.72
2022-08-21T12:38:50.749Z,101051.44
2022-08-21T12:41:36.192Z,101043.94
2022-08-21T12:44:17.360Z,101045.25
2022-08-21T12:46:59.266Z,101041.66
2022-08-21T12:49:39.172Z,101039.00
2022-08-21T12:52:23.480Z,101030.28
2022-08-21T12:55:03.142Z,101031.78
2022-08-21T12:57:44.259Z,101023.00
2022-08-21T13:00:30.456Z,101023.72
2022-08-21T13:03:10.420Z,101026.63
2022-08-21T13:05:52.331Z,101028.25
2022-08-21T13:08:33.759Z,101025.53
2022-08-21T13:11:32.523Z,101022.22
2022-08-21T13:14:19.939Z,101016.78
2022-08-21T13:17:05.586Z,101017.03
2022-08-21T13:19:57.005Z,101014.41
2022-08-21T13:22:42.796Z,101009.28
2022-08-21T13:25:27.162Z,101015.16
2022-08-21T13:28:09.879Z,101024.03
2022-08-21T13:30:51.324Z,101026.28
2022-08-21T13:33:36.425Z,101025.28
2022-08-21T13:36:20.891Z,101018.16
2022-08-21T13:39:00.480Z,101018.00
2022-08-21T13:42:25.413Z,101017.84
2022-08-21T13:45:06.319Z,101018.16
2022-08-21T13:47:49.393Z,101015.97
2022-08-21T13:50:29.673Z,101008.53
2022-08-21T13:53:22.947Z,101000.56
2022-08-21T13:56:07.108Z,101011.28
2022-08-21T13:58:47.849Z,101009.44
2022-08-21T14:01:30.539Z,101009.41
2022-08-21T14:04:22.890Z,101012.53
2022-08-21T14:07:17.495Z,101019.44
2022-08-21T14:10:02.263Z,101012.22
2022-08-21T14:12:48.021Z,101019.59
2022-08-21T14:15:31.148Z,101009.44
2022-08-21T14:18:17.095Z,101008.66
2022-08-21T14:21:07.622Z,101015.69
2022-08-21T14:23:47.172Z,101010.00
2022-08-21T14:26:27.049Z,101013.59
2022-08-21T14:29:11.058Z,101010.31
2022-08-21T14:31:54.757Z,101014.41
2022-08-21T14:34:36.110Z,101008.63
2022-08-21T14:37:17.975Z,101007.25
2022-08-21T14:39:59.483Z,101006.41
2022-08-21T14:42:41.929Z,101006.41
2022-08-21T14:45:27.609Z,101007.75
2022-08-21T14:48:09.024Z,101010.34
2022-08-21T14:50:49.298Z,101014.16
2022-08-21T14:53:31.099Z,101016.28
2022-08-21T14:56:09.367Z,101009.16
2022-08-21T14:58:50.763Z,101005.25
2022-08-21T15:01:30.138Z,101005.94
2022-08-21T15:04:13.297Z,101011.94
2022-08-21T15:06:52.907Z,101007.44
2022-08-21T15:09:32.829Z,101007.88
2022-08-21T15:12:14.911Z,101010.47
2022-08-21T15:14:55.767Z,101005.69
2022-08-21T15:17:35.390Z,101005.94
2022-08-21T15:20:17.321Z,101012.94
2022-08-21T15:22:58.649Z,101009.50
2022-08-21T15:25:38.353Z,101014.13
2022-08-21T15:28:19.299Z,101008.66
2022-08-21T15:30:58.860Z,101010.03
2022-08-21T15:34:00.239Z,101009.22
2022-08-21T15:36:39.611Z,101012.72
2022-08-21T15:39:19.054Z,101007.47
2022-08-21T15:42:11.285Z,101008.47
2022-08-21T15:44:50.874Z,101001.88
2022-08-21T15:47:36.546Z,101007.53
2022-08-21T15:50:15.628Z,101003.94
2022-08-21T15:52:56.181Z,101009.00
2022-08-21T15:55:37.556Z,100998.00
2022-08-21T15:58:18.221Z,101009.06
2022-08-21T16:01:00.569Z,101011.41
2022-08-21T16:03:40.333Z,101010.19
2022-08-21T16:06:37.709Z,101013.78
2022-08-21T16:09:19.028Z,101012.63
2022-08-21T16:12:00.301Z,101009.25
2022-08-21T16:14:41.188Z,101007.19
2022-08-21T16:17:23.082Z,101005.84
2022-08-21T16:20:06.760Z,101006.84
2022-08-21T16:22:46.327Z,101003.03
2022-08-21T16:25:29.643Z,101001.38
2022-08-21T16:28:13.146Z,101000.22
2022-08-21T16:30:53.616Z,100997.66
2022-08-21T16:33:39.287Z,101005.25
2022-08-21T16:36:22.575Z,101001.75
2022-08-21T16:39:03.885Z,100995.41
2022-08-21T16:42:03.703Z,100998.22
2022-08-21T16:45:06.068Z,101000.28
2022-08-21T16:47:47.747Z,100998.75
2022-08-21T16:50:31.221Z,101000.03
2022-08-21T16:53:11.129Z,100997.53
2022-08-21T16:55:51.269Z,100992.84
2022-08-21T16:58:34.156Z,100986.47
2022-08-21T17:01:19.634Z,100993.34
2022-08-21T17:03:58.833Z,100982.94
2022-08-21T17:06:38.867Z,100994.75
2022-08-21T17:09:19.676Z,100992.31
2022-08-21T17:12:03.487Z,100994.34
2022-08-21T17:15:07.017Z,100990.78
2022-08-21T17:17:47.574Z,100993.41
2022-08-21T17:20:35.415Z,100987.00
2022-08-21T17:23:19.905Z,100993.88
2022-08-21T17:26:07.223Z,100988.28
2022-08-21T17:28:54.978Z,100989.97
2022-08-21T17:31:40.265Z,100994.41
2022-08-21T17:34:20.403Z,100986.84
2022-08-21T17:37:18.832Z,100995.94
2022-08-21T17:39:58.853Z,100998.97
2022-08-21T17:43:04.242Z,101000.38
2022-08-21T17:45:51.020Z,101000.47
2022-08-21T17:48:52.743Z,100998.91
2022-08-21T17:51:34.087Z,101002.81
2022-08-21T17:54:21.938Z,101003.69
2022-08-21T17:57:16.186Z,101009.22
2022-08-21T17:59:58.581Z,101005.72
2022-08-21T18:02:51.632Z,101011.03
2022-08-21T18:05:42.403Z,101009.00
2022-08-21T18:08:38.998Z,101016.38
2022-08-21T18:11:30.453Z,101016.47
2022-08-21T18:15:11.082Z,101016.78
2022-08-21T18:17:55.343Z,101011.44
2022-08-21T18:20:42.428Z,101017.78
2022-08-21T18:23:33.028Z,101022.44
2022-08-21T18:26:32.893Z,101024.59
2022-08-21T18:29:18.947Z,101033.03
2022-08-21T18:32:00.214Z,101028.47
2022-08-21T18:34:51.767Z,101029.81
2022-08-21T18:37:33.358Z,101034.03
2022-08-21T18:40:22.164Z,101035.97
2022-08-21T18:43:09.933Z,101034.59
2022-08-21T18:46:03.434Z,101047.13
2022-08-21T18:48:45.339Z,101044.47
2022-08-21T18:51:27.588Z,101044.53
2022-08-21T18:54:30.145Z,101047.50
2022-08-21T18:57:15.852Z,101052.38
2022-08-21T19:00:11.369Z,101048.00
2022-08-21T19:02:57.859Z,101052.88
2022-08-21T19:05:44.094Z,101053.31
2022-08-21T19:08:38.946Z,101062.97
2022-08-21T19:11:24.553Z,101057.34
2022-08-21T19:14:17.153Z,101059.06
2022-08-21T19:17:12.770Z,101052.66
2022-08-21T19:23:30.078Z,101064.56
2022-08-21T19:26:18.212Z,101060.41
2022-08-21T19:39:30.841Z,101054.50
2022-08-21T19:42:21.197Z,101055.75
2022-08-21T19:45:09.136Z,101057.84
2022-08-21T19:47:51.292Z,101055.16
2022-08-21T19:50:40.669Z,101057.00
2022-08-21T19:53:29.254Z,101068.66
2022-08-21T19:56:35.054Z,101065.94
2022-08-21T19:59:33.756Z,101068.00
2022-08-21T20:02:21.550Z,101070.25
2022-08-21T20:05:09.490Z,101065.50
2022-08-21T20:07:57.205Z,101066.91
2022-08-21T20:10:55.115Z,101074.38
2022-08-21T20:13:44.392Z,101062.72
2022-08-21T20:16:31.367Z,101063.56
2022-08-21T20:19:45.018Z,101070.41
2022-08-21T20:22:31.706Z,101064.16
2022-08-21T20:25:15.462Z,101067.66
2022-08-21T20:28:19.278Z,101069.50
2022-08-21T20:34:20.651Z,101070.88
2022-08-21T20:37:36.157Z,101070.03
2022-08-21T20:40:38.120Z,101069.97
2022-08-21T20:43:52.382Z,101072.66
2022-08-21T20:46:40.853Z,101075.72
2022-08-21T20:49:30.073Z,101076.50
2022-08-21T20:52:35.419Z,101081.03
2022-08-21T20:55:47.356Z,101080.81
2022-08-21T20:58:31.273Z,101085.91
2022-08-21T21:01:15.115Z,101095.00
2022-08-21T21:07:12.109Z,101095.53
2022-08-21T21:10:04.527Z,101093.81
2022-08-21T21:12:55.553Z,101093.56
2022-08-21T21:16:07.116Z,101091.44
2022-08-21T21:19:05.998Z,101096.38
2022-08-21T21:22:02.767Z,101090.75
2022-08-21T21:25:01.282Z,101093.34
2022-08-21T21:27:51.045Z,101095.59
2022-08-21T21:30:37.660Z,101101.13
2022-08-21T21:33:24.323Z,101101.13
2022-08-21T21:36:14.671Z,101104.38
2022-08-21T21:39:36.223Z,101106.81
2022-08-21T21:42:56.398Z,101110.09
2022-08-21T21:46:02.499Z,101113.38
2022-08-21T21:49:24.912Z,101107.16
2022-08-21T21:52:18.992Z,101106.69
2022-08-21T21:55:48.905Z,101109.75
2022-08-21T21:59:11.083Z,101116.34
2022-08-21T22:02:16.393Z,101108.03
2022-08-21T22:05:03.962Z,101117.50
2022-08-21T22:07:51.188Z,101116.47
2022-08-21T22:10:56.162Z,101114.53
2022-08-21T22:13:53.651Z,101115.19
2022-08-21T22:17:09.474Z,101114.91
2022-08-21T22:19:55.533Z,101114.47
2022-08-21T22:22:46.489Z,101116.31
2022-08-21T22:25:39.003Z,101120.41
2022-08-21T22:28:33.264Z,101115.69
2022-08-21T22:31:38.421Z,101114.66
2022-08-21T22:34:29.272Z,101108.66
2022-08-21T22:37:14.269Z,101106.34
2022-08-21T22:40:01.800Z,101119.50
2022-08-21T22:43:03.665Z,101117.56
2022-08-21T22:56:42.646Z,101115.69
2022-08-21T22:59:29.459Z,101115.44
2022-08-21T23:02:23.772Z,101108.94
2022-08-21T23:05:16.963Z,101121.94
2022-08-21T23:08:24.272Z,101121.09
2022-08-21T23:11:13.531Z,101120.41
2022-08-21T23:13:59.747Z,101128.84
2022-08-21T23:16:48.105Z,101120.34
2022-08-21T23:19:42.955Z,101123.19
2022-08-21T23:22:44.157Z,101127.28
2022-08-21T23:25:47.855Z,101124.97
2022-08-21T23:28:55.531Z,101120.13
2022-08-21T23:31:46.033Z,101127.06
2022-08-21T23:34:35.885Z,101117.53
2022-08-21T23:37:49.172Z,101125.78
2022-08-21T23:40:47.049Z,101124.09
2022-08-21T23:43:47.059Z,101112.41
2022-08-21T23:46:59.680Z,101117.78
2022-08-21T23:49:53.833Z,101118.53
2022-08-21T23:52:42.921Z,101128.59
2022-08-21T23:55:36.575Z,101123.78
2022-08-21T23:58:29.663Z,101127.81
